This is the latest recevied weather packets stored in our database for station/object W8RD. If no packets are shown the sender has not sent any weather packets the latest 10 day(s).
| Time | Temp. | Humidity | Pressure | Rain* | Wind** | Luminosity | Snow |
|---|---|---|---|---|---|---|---|
| 1777076827 | 23.33° C | 63% | 1012.8 hPa | 0 mm | - | 0 W/m² | - |
| 1777076224 | 23.33° C | 63% | 1013 hPa | 0 mm | - | 0 W/m² | - |
| 1777075622 | 23.33° C | 62% | 1012.9 hPa | 0 mm | - | 1 W/m² | - |
| 1777075021 | 23.89° C | 62% | 1012.9 hPa | 0 mm | - | 3 W/m² | - |
| 1777074416 | 23.89° C | 60% | 1012.9 hPa | 0 mm | - | 8 W/m² | - |
| 1777073815 | 24.44° C | 58% | 1012.8 hPa | 0 mm | - | 12 W/m² | - |
| 1777073212 | 25.56° C | 56% | 1012.7 hPa | 0 mm | - | 18 W/m² | - |
| 1777072609 | 25° C | 56% | 1012.6 hPa | 0 mm | - | 27 W/m² | - |
| 1777072010 | 25° C | 59% | 1012.8 hPa | 0 mm | - | 26 W/m² | - |
| 1777071408 | 25° C | 58% | 1012.7 hPa | 0 mm | - | 28 W/m² | - |
| 1777070805 | 25° C | 56% | 1012.9 hPa | 0 mm | - | 30 W/m² | - |
| 1777070202 | 25.56° C | 53% | 1012.9 hPa | 0 mm | - | 35 W/m² | - |
| 1777069596 | 25° C | 52% | 1013 hPa | 0 mm | - | 35 W/m² | - |
| 1777068995 | 25.56° C | 51% | 1013 hPa | 0 mm | - | 38 W/m² | - |
| 1777068392 | 26.11° C | 52% | 1012.9 hPa | 0 mm | - | 42 W/m² | - |
| 1777067791 | 26.11° C | 54% | 1013.1 hPa | 0 mm | - | 96 W/m² | - |
| 1777067189 | 26.11° C | 54% | 1013 hPa | 0 mm | - | 58 W/m² | - |
| 1777066586 | 27.78° C | 53% | 1013 hPa | 0 mm | - | 182 W/m² | - |
| 1777065981 | 28.33° C | 53% | 1012.9 hPa | 0 mm | - | 354 W/m² | - |
| 1777065377 | 28.33° C | 53% | 1012.9 hPa | 0 mm | - | 395 W/m² | - |
| 1777064776 | 27.78° C | 54% | 1012.8 hPa | 0 mm | - | 429 W/m² | - |
| 1777064175 | 27.22° C | 56% | 1012.9 hPa | 0 mm | - | 468 W/m² | - |
| 1777063570 | 29.44° C | 50% | 1012.9 hPa | 0 mm | - | 508 W/m² | - |
| 1777062969 | 29.44° C | 50% | 1012.9 hPa | 0 mm | - | 548 W/m² | - |
| 1777062363 | 28.89° C | 53% | 1012.9 hPa | 0 mm | - | 583 W/m² | - |
* Rain latest hour (hover to see other rain measurements)
** Current wind speed in m/s (hover to see current wind gust speed)